Time;durP1;ratioP1;P1;durP2;ratioP2;P2;SDS_P1;SDS_P2;PMS_P1;PMS_P2;Temp;Humidity;BMP_temperature;BMP_pressure;BME280_temperature;BME280_humidity;BME280_pressure;Samples;Min_cycle;Max_cycle;Signal;HPM_P1;HPM_P2
2021/06/24 00:00:50;;;;;;;13.83;12.43;;;22.80;99.90;;;;;;4923230;29;20448;-75
2021/06/24 00:03:16;;;;;;;14.20;12.80;;;22.80;99.90;;;;;;4923057;29;20550;-79
2021/06/24 00:05:43;;;;;;;15.63;14.20;;;22.90;99.90;;;;;;4929814;29;20531;-71
2021/06/24 00:08:10;;;;;;;16.77;14.77;;;23.10;99.90;;;;;;4929616;29;20637;-73
2021/06/24 00:10:38;;;;;;;15.30;13.27;;;23.00;99.90;;;;;;4926952;29;20447;-72
2021/06/24 00:13:04;;;;;;;15.17;12.70;;;23.00;99.90;;;;;;4925703;29;20460;-71
2021/06/24 00:15:30;;;;;;;16.17;14.57;;;22.90;99.90;;;;;;4925209;29;20447;-73
2021/06/24 00:17:56;;;;;;;13.80;12.47;;;22.70;99.90;;;;;;4927066;29;20466;-71
2021/06/24 00:20:22;;;;;;;17.63;13.20;;;22.60;99.90;;;;;;4925016;29;20490;-73
2021/06/24 00:22:47;;;;;;;16.17;14.13;;;22.20;99.90;;;;;;4929778;29;20223;-76
2021/06/24 00:25:13;;;;;;;14.80;13.30;;;22.40;99.90;;;;;;4925736;29;20191;-74
2021/06/24 00:27:39;;;;;;;18.87;15.73;;;22.10;99.90;;;;;;4927340;29;20188;-73
2021/06/24 00:30:06;;;;;;;16.37;13.57;;;21.60;99.90;;;;;;4928442;29;21036;-71
2021/06/24 00:32:32;;;;;;;17.97;14.30;;;21.80;99.90;;;;;;4924451;29;20207;-74
2021/06/24 00:35:01;;;;;;;15.63;14.07;;;22.00;99.90;;;;;;4925348;29;20493;-74
2021/06/24 00:37:27;;;;;;;23.50;12.93;;;22.10;99.90;;;;;;4924362;29;22713;-72
2021/06/24 00:39:53;;;;;;;15.70;14.10;;;22.20;99.90;;;;;;4926529;29;21069;-71
2021/06/24 00:42:19;;;;;;;16.30;14.70;;;22.00;99.90;;;;;;4926058;29;20498;-73
2021/06/24 00:44:45;;;;;;;17.03;15.23;;;21.80;99.90;;;;;;4927704;29;20222;-77
2021/06/24 00:47:11;;;;;;;18.20;16.20;;;22.00;99.90;;;;;;4929902;29;20444;-75
2021/06/24 00:49:37;;;;;;;18.83;16.33;;;22.00;99.90;;;;;;4928078;29;20524;-72
2021/06/24 00:52:03;;;;;;;16.47;14.87;;;21.70;99.90;;;;;;4929284;29;20220;-71
2021/06/24 00:54:28;;;;;;;17.53;15.77;;;21.70;99.90;;;;;;4928982;29;20195;-72
2021/06/24 00:56:54;;;;;;;17.67;15.80;;;21.70;99.90;;;;;;4925673;29;20444;-75
2021/06/24 00:59:21;;;;;;;19.27;15.60;;;21.70;99.90;;;;;;4926404;29;20202;-76
2021/06/24 01:01:46;;;;;;;17.47;15.60;;;21.50;99.90;;;;;;4927479;29;20245;-73
2021/06/24 01:04:12;;;;;;;17.83;16.13;;;21.40;99.90;;;;;;4927650;29;21190;-76
2021/06/24 01:06:38;;;;;;;18.20;16.30;;;21.40;99.90;;;;;;4924075;29;20190;-75
2021/06/24 01:09:04;;;;;;;17.93;15.80;;;21.40;99.90;;;;;;4926515;29;20440;-72
2021/06/24 01:11:30;;;;;;;17.13;15.00;;;21.30;99.90;;;;;;4925927;29;20204;-71
2021/06/24 01:13:55;;;;;;;15.33;13.83;;;21.20;99.90;;;;;;4925440;29;20294;-75
2021/06/24 01:16:21;;;;;;;17.10;13.13;;;21.10;99.90;;;;;;4925190;29;20192;-72
2021/06/24 01:18:48;;;;;;;18.00;11.17;;;21.20;99.90;;;;;;4925654;29;20199;-75
2021/06/24 01:21:14;;;;;;;9.90;9.07;;;21.20;99.90;;;;;;4925908;29;20199;-74
2021/06/24 01:23:42;;;;;;;8.10;7.30;;;21.10;99.90;;;;;;4921101;29;20468;-74
2021/06/24 01:26:08;;;;;;;7.20;6.60;;;21.10;99.90;;;;;;4923723;29;20199;-75
2021/06/24 01:28:35;;;;;;;8.53;6.57;;;21.00;99.90;;;;;;4924599;29;20531;-72
2021/06/24 01:31:00;;;;;;;7.07;6.33;;;20.90;99.90;;;;;;4927272;29;20475;-72
2021/06/24 01:33:26;;;;;;;6.80;5.60;;;20.70;99.90;;;;;;4924445;29;21217;-77
2021/06/24 01:36:01;;;;;;;7.37;5.13;;;20.50;99.90;;;;;;4926496;29;20230;-75
2021/06/24 01:38:27;;;;;;;3.67;3.27;;;20.30;99.90;;;;;;4925074;29;22414;-72
2021/06/24 01:40:53;;;;;;;4.03;3.73;;;20.20;99.90;;;;;;4926667;29;20448;-73
2021/06/24 01:43:19;;;;;;;6.03;3.70;;;20.10;99.90;;;;;;4925744;29;20471;-75
2021/06/24 01:45:47;;;;;;;3.50;3.20;;;20.00;99.90;;;;;;4927422;29;20423;-74
2021/06/24 01:48:13;;;;;;;3.13;2.93;;;20.10;99.90;;;;;;4926772;29;21010;-73
2021/06/24 01:50:38;;;;;;;3.87;2.70;;;20.00;99.90;;;;;;4926085;29;20586;-72
2021/06/24 01:53:04;;;;;;;3.20;2.90;;;19.90;99.90;;;;;;4930633;29;20538;-74
2021/06/24 01:55:34;;;;;;;3.40;3.00;;;19.80;99.90;;;;;;4930404;29;20195;-72
2021/06/24 01:58:01;;;;;;;3.63;3.33;;;19.70;99.90;;;;;;4930019;29;20450;-76
2021/06/24 02:00:27;;;;;;;3.63;3.07;;;19.70;99.90;;;;;;4928555;29;20468;-73
2021/06/24 02:02:53;;;;;;;2.97;2.67;;;19.60;99.90;;;;;;4928642;29;20470;-75
2021/06/24 02:05:18;;;;;;;2.77;2.57;;;19.70;99.90;;;;;;4929401;29;20203;-74
2021/06/24 02:07:44;;;;;;;3.77;2.70;;;19.70;99.90;;;;;;4928513;29;20193;-78
2021/06/24 02:10:10;;;;;;;3.37;2.73;;;19.80;99.90;;;;;;4929594;29;20207;-76
2021/06/24 02:12:36;;;;;;;3.83;2.90;;;19.60;99.90;;;;;;4928978;29;20616;-73
2021/06/24 02:15:07;;;;;;;3.50;3.20;;;19.70;99.90;;;;;;4929778;29;20432;-73
2021/06/24 02:17:33;;;;;;;3.20;2.90;;;19.70;99.90;;;;;;4927899;29;20191;-75
2021/06/24 02:19:59;;;;;;;5.47;3.40;;;19.80;99.90;;;;;;4912661;29;20871;-74
2021/06/24 02:22:25;;;;;;;5.17;4.07;;;19.90;99.90;;;;;;4928308;29;20546;-75
2021/06/24 02:24:50;;;;;;;4.40;3.47;;;19.90;99.90;;;;;;4924676;29;20199;-76
2021/06/24 02:27:16;;;;;;;3.27;2.97;;;19.70;99.90;;;;;;4927335;29;20275;-74
2021/06/24 02:29:42;;;;;;;7.10;3.33;;;19.80;99.90;;;;;;4928429;29;20271;-75
2021/06/24 02:32:07;;;;;;;3.80;3.50;;;19.70;99.90;;;;;;4930026;29;20214;-75
2021/06/24 02:34:35;;;;;;;5.50;3.40;;;19.70;99.90;;;;;;4930530;29;20196;-76
2021/06/24 02:37:01;;;;;;;4.10;3.43;;;19.60;99.90;;;;;;4929054;29;20696;-75
2021/06/24 02:39:27;;;;;;;5.53;3.40;;;19.40;99.90;;;;;;4926211;29;20463;-74
2021/06/24 02:41:52;;;;;;;4.13;3.73;;;19.30;99.90;;;;;;4927754;29;20467;-75
2021/06/24 02:44:18;;;;;;;3.67;3.10;;;19.30;99.90;;;;;;4928539;29;20212;-73
2021/06/24 02:46:44;;;;;;;3.87;3.10;;;19.30;99.90;;;;;;4928185;29;20188;-73
2021/06/24 02:49:09;;;;;;;3.50;3.20;;;19.20;99.90;;;;;;4929225;29;20204;-76
2021/06/24 02:51:35;;;;;;;4.03;3.73;;;19.30;99.90;;;;;;4926600;29;20243;-75
2021/06/24 02:54:00;;;;;;;3.60;3.30;;;19.10;99.90;;;;;;4928861;29;20196;-72
2021/06/24 02:56:26;;;;;;;3.33;3.03;;;19.10;99.90;;;;;;4930766;29;20247;-72
2021/06/24 02:58:52;;;;;;;4.37;3.20;;;19.40;99.90;;;;;;4927502;29;20195;-78
2021/06/24 03:01:18;;;;;;;4.57;3.03;;;19.50;99.90;;;;;;4925577;29;20227;-73
2021/06/24 03:03:43;;;;;;;3.30;2.77;;;19.70;99.90;;;;;;4928350;29;20934;-74
2021/06/24 03:06:09;;;;;;;5.30;3.00;;;19.80;99.90;;;;;;4925199;29;20451;-73
2021/06/24 03:08:35;;;;;;;3.20;2.90;;;19.80;99.90;;;;;;4925130;29;20203;-73
2021/06/24 03:11:00;;;;;;;3.67;3.20;;;19.80;99.90;;;;;;4927051;29;20198;-75
2021/06/24 03:13:26;;;;;;;5.30;2.87;;;19.80;99.90;;;;;;4927392;29;20283;-79
2021/06/24 03:15:52;;;;;;;3.00;2.60;;;19.80;99.90;;;;;;4929308;29;20216;-73
2021/06/24 03:18:17;;;;;;;4.23;2.73;;;19.80;99.90;;;;;;4927052;29;20682;-73
2021/06/24 03:20:43;;;;;;;5.10;2.90;;;19.90;99.90;;;;;;4927429;29;20559;-73
2021/06/24 03:23:09;;;;;;;4.87;2.53;;;19.80;99.90;;;;;;4926802;29;20572;-76
2021/06/24 03:25:34;;;;;;;3.50;2.50;;;19.90;99.90;;;;;;4928269;29;20184;-73
2021/06/24 03:28:00;;;;;;;2.83;2.57;;;19.90;99.90;;;;;;4926640;29;20251;-74
2021/06/24 03:30:26;;;;;;;2.60;2.40;;;19.90;99.90;;;;;;4926141;29;20697;-78
2021/06/24 03:32:51;;;;;;;2.67;2.47;;;19.90;99.90;;;;;;4925408;29;20204;-73
2021/06/24 03:35:17;;;;;;;2.60;2.40;;;20.00;99.90;;;;;;4927465;29;20299;-76
2021/06/24 03:37:43;;;;;;;3.40;2.30;;;20.00;99.90;;;;;;4926968;29;20610;-73
2021/06/24 03:40:15;;;;;;;2.37;2.17;;;20.00;99.90;;;;;;4926171;29;20475;-73
2021/06/24 03:42:40;;;;;;;2.67;2.47;;;20.00;99.90;;;;;;4928925;29;20459;-75
2021/06/24 03:45:07;;;;;;;3.30;1.90;;;19.90;99.90;;;;;;4926077;29;20834;-73
2021/06/24 03:47:32;;;;;;;5.53;2.00;;;19.80;99.90;;;;;;4925453;29;20204;-73
2021/06/24 03:49:58;;;;;;;2.60;2.40;;;19.90;99.90;;;;;;4926213;29;20768;-73
2021/06/24 03:52:23;;;;;;;2.13;1.93;;;19.70;99.90;;;;;;4925341;29;20585;-75
2021/06/24 03:54:49;;;;;;;2.33;2.10;;;19.70;99.90;;;;;;4927750;29;20204;-75
2021/06/24 03:57:15;;;;;;;2.27;1.70;;;19.90;99.90;;;;;;4924947;29;20202;-73
2021/06/24 03:59:40;;;;;;;2.30;2.10;;;20.00;99.90;;;;;;4928342;29;20677;-72
2021/06/24 04:02:06;;;;;;;5.03;2.13;;;20.20;99.90;;;;;;4927936;29;20238;-76
2021/06/24 04:04:31;;;;;;;2.60;2.40;;;20.20;99.90;;;;;;4924755;29;20219;-76
2021/06/24 04:06:57;;;;;;;2.50;2.30;;;20.30;99.90;;;;;;4927600;29;20200;-72
2021/06/24 04:09:23;;;;;;;2.83;2.10;;;20.40;99.90;;;;;;4923218;29;20193;-73
2021/06/24 04:11:48;;;;;;;2.80;1.80;;;20.50;99.90;;;;;;4926790;29;20215;-73
2021/06/24 04:14:14;;;;;;;2.27;1.77;;;20.40;99.90;;;;;;4927086;29;20191;-76
2021/06/24 04:16:40;;;;;;;1.90;1.70;;;20.40;99.90;;;;;;4926100;29;20768;-73
2021/06/24 04:19:05;;;;;;;2.10;1.90;;;20.50;99.90;;;;;;4928376;29;20255;-73
2021/06/24 04:21:31;;;;;;;2.00;1.80;;;20.50;99.90;;;;;;4924692;29;20262;-74
2021/06/24 04:23:57;;;;;;;1.97;1.77;;;20.30;99.90;;;;;;4927293;29;20213;-75
2021/06/24 04:26:22;;;;;;;2.40;2.20;;;19.90;99.90;;;;;;4923987;29;20503;-76
2021/06/24 04:28:49;;;;;;;2.20;2.00;;;20.00;99.90;;;;;;4926533;29;20227;-74
2021/06/24 04:31:15;;;;;;;2.00;1.80;;;20.00;99.90;;;;;;4924879;29;20215;-72
2021/06/24 04:33:40;;;;;;;1.93;1.77;;;20.10;99.90;;;;;;4927546;29;20447;-72
2021/06/24 04:36:06;;;;;;;2.00;1.90;;;20.20;99.90;;;;;;4925372;29;20207;-73
2021/06/24 04:38:32;;;;;;;1.87;1.77;;;20.20;99.90;;;;;;4928062;29;20199;-76
2021/06/24 04:40:57;;;;;;;1.80;1.70;;;20.20;99.90;;;;;;4923506;29;20431;-73
2021/06/24 04:43:23;;;;;;;2.00;1.90;;;20.40;99.90;;;;;;4926271;29;20215;-78
2021/06/24 04:45:49;;;;;;;2.40;2.10;;;20.40;99.90;;;;;;4927924;29;20202;-74
2021/06/24 04:48:14;;;;;;;3.03;2.00;;;20.10;99.90;;;;;;4929739;29;20176;-75
2021/06/24 04:50:40;;;;;;;1.97;1.77;;;20.30;99.90;;;;;;4927405;29;20903;-71
2021/06/24 04:53:05;;;;;;;2.10;1.90;;;20.30;99.90;;;;;;4929793;29;20231;-74
2021/06/24 04:55:38;;;;;;;2.07;1.90;;;20.30;99.90;;;;;;4927125;29;20238;-72
2021/06/24 04:58:05;;;;;;;3.73;2.53;;;20.30;99.90;;;;;;4925013;29;20234;-73
2021/06/24 05:00:31;;;;;;;2.63;1.80;;;20.40;99.90;;;;;;4925852;29;20451;-70
2021/06/24 05:02:57;;;;;;;2.23;2.03;;;20.40;99.90;;;;;;4928699;29;20478;-70
2021/06/24 05:05:23;;;;;;;2.30;1.90;;;20.40;99.90;;;;;;4923359;29;21064;-72
2021/06/24 05:07:49;;;;;;;2.40;2.20;;;20.40;99.90;;;;;;4922677;29;20183;-75
2021/06/24 05:10:14;;;;;;;2.30;2.10;;;20.40;99.90;;;;;;4926608;29;20199;-72
2021/06/24 05:12:40;;;;;;;1.77;1.67;;;20.40;99.90;;;;;;4926306;29;20550;-76
2021/06/24 05:15:07;;;;;;;1.73;1.63;;;20.40;99.90;;;;;;4921845;29;20229;-76
2021/06/24 05:17:32;;;;;;;1.80;1.70;;;20.40;99.90;;;;;;4925071;29;20184;-77
2021/06/24 05:19:58;;;;;;;2.00;1.80;;;20.50;99.90;;;;;;4925965;29;20498;-76
2021/06/24 05:22:25;;;;;;;2.37;1.90;;;20.50;99.90;;;;;;4925928;29;20290;-71
2021/06/24 05:24:51;;;;;;;3.47;2.60;;;20.30;99.90;;;;;;4925249;29;20462;-75
2021/06/24 05:27:17;;;;;;;2.03;1.83;;;20.20;99.90;;;;;;4925878;29;20876;-76
2021/06/24 05:29:42;;;;;;;2.23;2.00;;;20.20;99.90;;;;;;4926022;29;20275;-73
2021/06/24 05:32:08;;;;;;;2.17;1.97;;;20.20;99.90;;;;;;4924921;29;20247;-72
2021/06/24 05:34:34;;;;;;;2.27;2.07;;;20.20;99.90;;;;;;4921208;29;20287;-76
2021/06/24 05:37:03;;;;;;;2.00;1.80;;;20.30;99.90;;;;;;4925028;29;20190;-73
2021/06/24 05:39:29;;;;;;;3.03;2.23;;;20.40;99.90;;;;;;4921259;29;20279;-76
2021/06/24 05:41:57;;;;;;;2.40;2.20;;;20.50;99.90;;;;;;4924727;29;20843;-72
2021/06/24 05:44:24;;;;;;;2.07;1.90;;;20.50;99.90;;;;;;4922669;29;20577;-75
2021/06/24 05:46:49;;;;;;;2.33;2.13;;;20.40;99.90;;;;;;4924187;29;20439;-76
2021/06/24 05:49:15;;;;;;;2.37;2.17;;;20.60;99.90;;;;;;4924058;29;20420;-73
2021/06/24 05:51:41;;;;;;;3.20;2.10;;;20.80;99.90;;;;;;4923598;29;20202;-80
2021/06/24 05:54:06;;;;;;;2.40;2.20;;;21.00;99.90;;;;;;4925728;29;20319;-72
2021/06/24 05:56:32;;;;;;;3.90;2.47;;;20.90;99.90;;;;;;4925634;29;20208;-75
2021/06/24 05:58:58;;;;;;;2.37;2.17;;;21.00;99.90;;;;;;4923735;29;20200;-77
2021/06/24 06:01:23;;;;;;;2.60;2.20;;;21.00;99.90;;;;;;4923009;29;20234;-77
2021/06/24 06:03:49;;;;;;;12.60;11.00;;;20.90;99.90;;;;;;4925185;29;20215;-74
2021/06/24 06:06:14;;;;;;;3.47;3.17;;;20.90;99.90;;;;;;4921443;29;20199;-72
2021/06/24 06:08:40;;;;;;;4.40;2.50;;;20.70;99.90;;;;;;4925536;29;20196;-72
2021/06/24 06:11:07;;;;;;;2.60;2.40;;;20.80;99.90;;;;;;4926276;29;20220;-73
2021/06/24 06:13:32;;;;;;;2.57;2.30;;;20.80;99.90;;;;;;4924230;29;20200;-75
2021/06/24 06:15:58;;;;;;;4.27;2.60;;;21.00;99.90;;;;;;4926175;29;20448;-71
2021/06/24 06:18:25;;;;;;;2.70;2.30;;;20.70;99.90;;;;;;4924683;29;20703;-72
2021/06/24 06:20:53;;;;;;;2.90;2.50;;;20.90;99.90;;;;;;4925044;29;20283;-75
2021/06/24 06:23:21;;;;;;;2.57;2.13;;;21.00;99.90;;;;;;4924540;29;20558;-74
2021/06/24 06:25:47;;;;;;;4.90;2.20;;;21.10;99.90;;;;;;4919945;29;20444;-72
2021/06/24 06:28:14;;;;;;;3.03;2.80;;;21.10;99.90;;;;;;4923056;29;21257;-75
2021/06/24 06:30:41;;;;;;;2.50;2.30;;;21.10;99.90;;;;;;4923149;29;20467;-72
2021/06/24 06:33:08;;;;;;;3.03;2.70;;;21.40;99.90;;;;;;4924577;29;20466;-80
2021/06/24 06:35:34;;;;;;;2.90;2.60;;;21.50;99.90;;;;;;4928403;29;20441;-73
2021/06/24 06:38:00;;;;;;;2.77;2.50;;;21.50;99.90;;;;;;4918015;29;21105;-75
2021/06/24 06:40:25;;;;;;;3.37;3.07;;;21.50;99.90;;;;;;4918085;29;20762;-76
2021/06/24 06:42:51;;;;;;;3.37;3.07;;;21.60;99.90;;;;;;4925896;29;20212;-75
2021/06/24 06:45:21;;;;;;;3.80;3.43;;;21.60;99.90;;;;;;4924170;29;20203;-78
2021/06/24 06:47:48;;;;;;;5.70;4.20;;;21.70;99.90;;;;;;4927837;29;20555;-75
2021/06/24 06:50:14;;;;;;;4.03;3.70;;;21.70;99.90;;;;;;4930332;29;20423;-76
2021/06/24 06:52:41;;;;;;;4.47;4.07;;;21.80;99.90;;;;;;4926006;29;20468;-74
2021/06/24 06:55:08;;;;;;;5.57;5.07;;;21.60;99.90;;;;;;4927491;29;20427;-81
2021/06/24 06:57:33;;;;;;;7.67;4.93;;;21.60;99.90;;;;;;4928335;29;20961;-78
2021/06/24 06:59:59;;;;;;;5.27;4.77;;;21.70;99.90;;;;;;4925774;29;20440;-76
2021/06/24 07:02:25;;;;;;;5.23;4.73;;;21.70;99.90;;;;;;4927221;29;20228;-74
2021/06/24 07:04:50;;;;;;;5.33;4.83;;;21.60;99.90;;;;;;4927189;29;20224;-74
2021/06/24 07:07:16;;;;;;;4.80;4.40;;;21.70;99.90;;;;;;4927566;29;20524;-73
2021/06/24 07:09:42;;;;;;;4.43;4.07;;;21.60;99.90;;;;;;4928173;29;20201;-77
2021/06/24 07:12:09;;;;;;;5.37;4.93;;;21.80;99.90;;;;;;4927526;29;20285;-75
2021/06/24 07:14:34;;;;;;;5.80;4.63;;;21.90;99.90;;;;;;4928564;29;20432;-76
2021/06/24 07:17:00;;;;;;;4.70;4.23;;;22.00;99.90;;;;;;4924791;29;20510;-75
2021/06/24 07:19:26;;;;;;;4.30;3.90;;;22.00;99.90;;;;;;4929679;29;20275;-73
2021/06/24 07:21:51;;;;;;;5.40;4.90;;;22.10;99.90;;;;;;4929030;29;20224;-73
2021/06/24 07:24:20;;;;;;;6.07;5.47;;;22.00;99.90;;;;;;4928166;29;20212;-77
2021/06/24 07:26:45;;;;;;;9.20;8.40;;;21.90;99.90;;;;;;4929783;29;20668;-73
2021/06/24 07:29:11;;;;;;;9.30;8.43;;;21.70;99.90;;;;;;4928530;29;20538;-76
2021/06/24 07:31:37;;;;;;;8.60;7.80;;;21.50;99.90;;;;;;4922138;29;20214;-76
2021/06/24 07:34:03;;;;;;;9.73;8.70;;;21.60;99.90;;;;;;4924520;29;20199;-75
2021/06/24 07:36:29;;;;;;;10.37;8.27;;;21.80;99.90;;;;;;4927722;29;21529;-72
2021/06/24 07:38:54;;;;;;;11.53;10.40;;;22.00;99.90;;;;;;4929088;29;20180;-74
2021/06/24 07:41:22;;;;;;;10.50;9.50;;;22.10;99.90;;;;;;4922757;29;20304;-74
2021/06/24 07:43:47;;;;;;;12.00;10.80;;;22.20;99.90;;;;;;4929702;29;20208;-76
2021/06/24 07:46:13;;;;;;;12.20;10.73;;;22.20;99.90;;;;;;4925919;29;20470;-74
2021/06/24 07:48:38;;;;;;;10.70;9.70;;;22.20;99.90;;;;;;4927193;29;20195;-72
2021/06/24 07:51:04;;;;;;;10.87;9.63;;;22.30;99.90;;;;;;4925477;29;20200;-74
2021/06/24 07:53:30;;;;;;;11.10;10.00;;;22.40;99.90;;;;;;4926536;29;20212;-72
2021/06/24 07:55:56;;;;;;;10.80;9.70;;;22.40;99.90;;;;;;4926974;29;20227;-74
2021/06/24 07:58:21;;;;;;;10.60;9.50;;;22.10;99.90;;;;;;4926685;29;20233;-73
2021/06/24 08:00:47;;;;;;;11.27;10.17;;;22.10;99.90;;;;;;4926659;29;20204;-73
2021/06/24 08:03:12;;;;;;;11.97;10.07;;;22.20;99.90;;;;;;4924668;29;20220;-73
2021/06/24 08:05:38;;;;;;;13.63;11.30;;;22.30;99.90;;;;;;4926502;29;20618;-73
2021/06/24 08:08:04;;;;;;;13.20;10.97;;;22.20;99.90;;;;;;4926612;29;20659;-74
2021/06/24 08:10:30;;;;;;;11.40;10.20;;;22.10;99.90;;;;;;4927258;29;20270;-73
2021/06/24 08:12:56;;;;;;;11.80;10.60;;;22.10;99.90;;;;;;4927243;29;20207;-73
2021/06/24 08:15:26;;;;;;;12.40;11.00;;;22.10;99.90;;;;;;4926188;29;20260;-74
2021/06/24 08:17:52;;;;;;;13.73;11.30;;;22.20;99.90;;;;;;4925928;29;20214;-72
2021/06/24 08:20:18;;;;;;;14.37;12.87;;;22.30;99.90;;;;;;4926223;29;20443;-72
2021/06/24 08:22:44;;;;;;;12.80;11.50;;;22.20;99.90;;;;;;4907639;29;20582;-72
2021/06/24 08:25:10;;;;;;;13.93;12.50;;;22.40;99.90;;;;;;4924957;29;20440;-72
2021/06/24 08:27:36;;;;;;;13.20;11.80;;;22.60;99.90;;;;;;4924527;29;20188;-72
2021/06/24 08:30:07;;;;;;;13.97;12.40;;;22.80;99.90;;;;;;4928085;29;20487;-73
2021/06/24 08:32:34;;;;;;;13.63;11.27;;;22.90;99.90;;;;;;4923118;29;20212;-73
2021/06/24 08:34:59;;;;;;;13.23;11.50;;;22.90;99.90;;;;;;4922993;29;20443;-77
2021/06/24 08:37:26;;;;;;;11.67;10.47;;;22.80;99.90;;;;;;4924078;29;20444;-75
2021/06/24 08:39:52;;;;;;;10.30;9.40;;;22.80;99.90;;;;;;4925272;29;20198;-75
2021/06/24 08:42:17;;;;;;;11.40;10.30;;;23.10;99.90;;;;;;4924852;29;20455;-77
2021/06/24 08:44:47;;;;;;;12.00;10.80;;;23.30;99.90;;;;;;4923003;29;20231;-75
2021/06/24 08:47:14;;;;;;;11.90;10.70;;;23.50;99.90;;;;;;4924709;29;20970;-74
2021/06/24 08:49:40;;;;;;;12.60;11.40;;;23.40;99.90;;;;;;4925083;29;20440;-74
2021/06/24 08:52:08;;;;;;;13.93;12.53;;;23.50;99.90;;;;;;4926607;29;20475;-73
2021/06/24 08:54:34;;;;;;;13.00;10.50;;;23.60;99.90;;;;;;4924931;29;20455;-74
2021/06/24 08:57:00;;;;;;;13.73;11.07;;;23.70;99.90;;;;;;4924156;29;20507;-75
2021/06/24 08:59:26;;;;;;;11.37;10.27;;;23.60;99.90;;;;;;4926418;29;20439;-73
2021/06/24 09:01:54;;;;;;;12.00;10.70;;;23.60;99.90;;;;;;4925714;29;20223;-76
2021/06/24 09:04:22;;;;;;;12.27;11.03;;;23.60;99.90;;;;;;4925532;29;20867;-74
2021/06/24 09:06:49;;;;;;;13.93;12.63;;;23.60;99.90;;;;;;4925075;29;20483;-73
2021/06/24 09:09:34;;;;;;;13.50;11.63;;;23.50;99.90;;;;;;4924245;29;20443;-76
2021/06/24 09:12:08;;;;;;;13.77;11.07;;;23.50;99.90;;;;;;4926697;29;20448;-74
2021/06/24 09:14:45;;;;;;;12.83;11.40;;;23.50;99.90;;;;;;4922934;29;20452;-77
2021/06/24 09:17:13;;;;;;;11.90;10.80;;;23.70;99.90;;;;;;4923254;29;20453;-74
2021/06/24 09:19:42;;;;;;;13.00;11.70;;;23.50;99.90;;;;;;4923211;29;20440;-73
2021/06/24 09:22:13;;;;;;;12.70;10.90;;;23.30;99.90;;;;;;4921454;29;20515;-73
2021/06/24 09:24:43;;;;;;;13.30;11.90;;;23.50;99.90;;;;;;4923428;29;20546;-73
2021/06/24 09:27:17;;;;;;;12.03;10.50;;;23.60;99.90;;;;;;4921980;29;20443;-77
2021/06/24 09:29:47;;;;;;;13.20;11.10;;;23.70;99.90;;;;;;4924040;29;20499;-76
2021/06/24 09:32:37;;;;;;;13.73;11.43;;;23.80;99.90;;;;;;4922995;29;20466;-73
2021/06/24 09:35:08;;;;;;;11.63;10.53;;;23.90;99.90;;;;;;4922972;29;20446;-75
2021/06/24 09:37:59;;;;;;;10.60;9.60;;;23.80;99.90;;;;;;4927837;29;20455;-75
2021/06/24 09:40:39;;;;;;;11.37;10.27;;;23.70;99.90;;;;;;4930811;29;20419;-78
2021/06/24 09:43:05;;;;;;;11.30;10.20;;;23.70;99.90;;;;;;4923643;29;20463;-73
2021/06/24 09:45:30;;;;;;;10.93;9.70;;;23.80;99.90;;;;;;4922281;29;20480;-74
2021/06/24 09:48:10;;;;;;;11.17;10.00;;;23.80;99.90;;;;;;4922260;29;20593;-73
2021/06/24 09:50:37;;;;;;;11.57;10.43;;;23.80;99.90;;;;;;4924129;29;20605;-72
2021/06/24 09:53:13;;;;;;;10.73;9.43;;;24.00;99.90;;;;;;4921459;29;21185;-73
2021/06/24 09:55:40;;;;;;;11.20;10.10;;;24.00;99.90;;;;;;4919888;29;20423;-74
2021/06/24 09:58:16;;;;;;;10.73;9.73;;;24.20;99.90;;;;;;4921946;29;20483;-76
2021/06/24 10:00:59;;;;;;;11.33;10.20;;;24.10;99.90;;;;;;4922248;29;20486;-73
2021/06/24 10:03:33;;;;;;;11.13;10.03;;;24.00;99.90;;;;;;4933350;29;20459;-74
2021/06/24 10:05:59;;;;;;;9.53;8.60;;;24.20;99.90;;;;;;4917545;29;20428;-75
2021/06/24 10:08:25;;;;;;;9.50;8.53;;;24.30;99.90;;;;;;4922468;29;20464;-72
2021/06/24 10:10:51;;;;;;;7.93;7.13;;;24.50;99.90;;;;;;4930154;29;20798;-76
2021/06/24 10:13:16;;;;;;;8.20;7.50;;;24.70;99.90;;;;;;4930397;29;20211;-73
2021/06/24 10:15:43;;;;;;;7.90;7.20;;;24.80;99.90;;;;;;4928621;29;20256;-75
2021/06/24 10:18:09;;;;;;;7.20;6.60;;;24.80;99.90;;;;;;4934829;29;20208;-73
2021/06/24 10:20:35;;;;;;;8.53;7.73;;;24.80;99.90;;;;;;4949851;29;20439;-75
2021/06/24 10:23:30;;;;;;;8.53;7.70;;;25.00;99.90;;;;;;4921927;29;20204;-75
2021/06/24 10:25:57;;;;;;;8.77;7.97;;;25.40;99.90;;;;;;4919651;29;20291;-73
2021/06/24 10:28:23;;;;;;;8.10;7.30;;;25.70;99.90;;;;;;4933673;29;20468;-75
2021/06/24 10:30:48;;;;;;;8.70;8.00;;;25.60;99.90;;;;;;4922433;29;20440;-75
2021/06/24 10:33:15;;;;;;;8.83;8.03;;;25.40;99.90;;;;;;4926464;29;20215;-74
2021/06/24 10:35:51;;;;;;;8.43;7.63;;;25.40;99.90;;;;;;4930563;29;20198;-72
2021/06/24 10:38:19;;;;;;;8.67;7.87;;;25.30;99.90;;;;;;4926160;29;20424;-74
2021/06/24 10:41:04;;;;;;;9.93;9.00;;;25.20;99.90;;;;;;4934833;29;20411;-73
2021/06/24 10:43:47;;;;;;;8.70;7.90;;;24.90;99.90;;;;;;4929617;29;20467;-74
2021/06/24 10:46:21;;;;;;;7.93;7.23;;;24.90;99.90;;;;;;4925954;29;20574;-76
2021/06/24 10:48:48;;;;;;;9.70;8.80;;;25.00;99.90;;;;;;4923013;29;20415;-76
2021/06/24 10:51:15;;;;;;;9.37;8.57;;;25.00;99.90;;;;;;4930737;29;20427;-74
2021/06/24 10:53:47;;;;;;;9.30;8.40;;;24.90;99.90;;;;;;4927730;29;20441;-72
2021/06/24 10:56:30;;;;;;;10.00;9.10;;;24.90;99.90;;;;;;4921754;29;20425;-75
2021/06/24 10:58:58;;;;;;;10.00;9.10;;;24.50;99.90;;;;;;4923268;29;20440;-73
2021/06/24 11:01:45;;;;;;;10.30;9.30;;;24.60;99.90;;;;;;4926680;29;21001;-73
2021/06/24 11:04:31;;;;;;;9.70;8.80;;;24.90;99.90;;;;;;4931104;29;20463;-72
2021/06/24 11:06:58;;;;;;;8.30;7.50;;;25.10;99.90;;;;;;4930804;29;20482;-74
2021/06/24 11:09:24;;;;;;;8.50;7.70;;;25.00;99.90;;;;;;4924235;29;20810;-73
2021/06/24 11:11:50;;;;;;;9.20;8.40;;;25.30;99.90;;;;;;4920655;29;20444;-75
2021/06/24 11:14:57;;;;;;;8.40;7.60;;;25.50;99.90;;;;;;4917178;29;20931;-75
2021/06/24 11:17:42;;;;;;;8.97;8.17;;;25.50;99.90;;;;;;4937360;29;20471;-72
2021/06/24 11:20:16;;;;;;;10.00;9.10;;;25.50;99.90;;;;;;4920989;29;20420;-74
2021/06/24 11:22:52;;;;;;;8.67;7.87;;;25.70;99.90;;;;;;4921501;29;20444;-75
2021/06/24 11:25:18;;;;;;;8.60;7.73;;;25.50;99.90;;;;;;4918308;29;20419;-74
2021/06/24 11:27:44;;;;;;;9.83;7.87;;;25.60;99.90;;;;;;4919970;29;20417;-74
2021/06/24 11:30:12;;;;;;;8.50;7.80;;;25.20;99.90;;;;;;4927708;29;21190;-71
2021/06/24 11:32:44;;;;;;;8.63;7.73;;;24.70;99.90;;;;;;4922674;29;20563;-72
2021/06/24 11:35:31;;;;;;;8.70;7.93;;;24.50;99.90;;;;;;4934240;29;20456;-72
2021/06/24 11:38:00;;;;;;;8.27;7.57;;;24.70;99.90;;;;;;4921827;29;20791;-75
2021/06/24 11:40:27;;;;;;;9.00;8.20;;;25.00;99.90;;;;;;4918510;29;20427;-72
2021/06/24 11:42:53;;;;;;;8.50;7.80;;;24.90;99.90;;;;;;4929100;29;20535;-74
2021/06/24 11:45:19;;;;;;;8.37;7.67;;;25.10;99.90;;;;;;4922421;29;20538;-72
2021/06/24 11:47:46;;;;;;;9.03;8.23;;;25.20;99.90;;;;;;4926743;29;20654;-75
2021/06/24 12:03:49;;;;;;;7.40;6.77;;;24.70;99.90;;;;;;4923272;29;20498;-74
2021/06/24 12:06:15;;;;;;;7.10;6.20;;;24.70;99.90;;;;;;4925396;29;20531;-74
2021/06/24 12:08:41;;;;;;;6.80;6.20;;;25.00;99.90;;;;;;4924064;29;20776;-74
2021/06/24 12:11:08;;;;;;;7.93;6.13;;;25.00;99.90;;;;;;4926914;29;20454;-73
2021/06/24 12:13:35;;;;;;;6.40;5.80;;;24.90;99.90;;;;;;4925967;29;20697;-72
2021/06/24 12:16:02;;;;;;;4.43;4.03;;;23.90;99.90;;;;;;4926639;29;20447;-72
2021/06/24 12:18:35;;;;;;;2.47;2.27;;;23.20;99.90;;;;;;4926124;29;20460;-72
2021/06/24 12:21:08;;;;;;;2.70;2.50;;;22.70;99.90;;;;;;4924031;29;20477;-72
2021/06/24 12:23:43;;;;;;;2.60;2.40;;;22.50;99.90;;;;;;4925741;29;20551;-72
2021/06/24 12:26:10;;;;;;;4.17;3.47;;;22.00;99.90;;;;;;4927266;29;20930;-72
2021/06/24 12:28:36;;;;;;;4.33;2.87;;;21.70;99.90;;;;;;4930752;29;20447;-73
2021/06/24 12:31:03;;;;;;;4.60;3.10;;;21.50;99.90;;;;;;4928141;29;20428;-73
2021/06/24 12:33:29;;;;;;;3.63;2.70;;;21.80;99.90;;;;;;4922830;29;21124;-77
2021/06/24 12:35:56;;;;;;;4.50;3.20;;;21.30;99.90;;;;;;4927962;29;20483;-72
2021/06/24 12:38:28;;;;;;;3.07;2.73;;;21.60;99.90;;;;;;4926234;29;20479;-74
2021/06/24 12:40:57;;;;;;;5.90;3.50;;;21.90;99.90;;;;;;4925714;29;20519;-76
2021/06/24 12:43:30;;;;;;;3.07;2.77;;;21.50;99.90;;;;;;4923145;29;20483;-75
2021/06/24 12:46:00;;;;;;;4.00;3.40;;;21.80;99.90;;;;;;4925669;29;20471;-74
2021/06/24 12:48:42;;;;;;;3.70;3.40;;;22.20;99.90;;;;;;4927765;29;20435;-74
2021/06/24 12:51:17;;;;;;;4.40;3.87;;;22.10;99.90;;;;;;4924925;29;20427;-76
2021/06/24 12:53:45;;;;;;;4.73;4.30;;;21.90;99.90;;;;;;4923624;29;20460;-74
2021/06/24 12:56:25;;;;;;;6.10;4.40;;;21.80;99.90;;;;;;4924940;29;20435;-73